sensor_id;sensor_type;location;lat;lon;timestamp;P1;durP1;ratioP1;P2;durP2;ratioP2
17844;SDS011;9047;53.486;10.218;2022-07-24T00:01:26;6.90;;;5.00;;
17844;SDS011;9047;53.486;10.218;2022-07-24T00:03:56;8.40;;;5.88;;
17844;SDS011;9047;53.486;10.218;2022-07-24T00:06:24;7.97;;;5.47;;
17844;SDS011;9047;53.486;10.218;2022-07-24T00:08:55;7.28;;;5.47;;
17844;SDS011;9047;53.486;10.218;2022-07-24T00:11:22;8.40;;;5.43;;
17844;SDS011;9047;53.486;10.218;2022-07-24T00:13:52;11.55;;;5.22;;
17844;SDS011;9047;53.486;10.218;2022-07-24T00:16:19;7.90;;;5.10;;
17844;SDS011;9047;53.486;10.218;2022-07-24T00:18:47;7.88;;;4.93;;
17844;SDS011;9047;53.486;10.218;2022-07-24T00:21:15;7.63;;;5.28;;
17844;SDS011;9047;53.486;10.218;2022-07-24T00:23:42;8.13;;;5.40;;
17844;SDS011;9047;53.486;10.218;2022-07-24T00:26:13;10.10;;;5.38;;
17844;SDS011;9047;53.486;10.218;2022-07-24T00:28:41;8.00;;;5.10;;
17844;SDS011;9047;53.486;10.218;2022-07-24T00:31:09;7.25;;;4.88;;
17844;SDS011;9047;53.486;10.218;2022-07-24T00:33:38;7.72;;;4.63;;
17844;SDS011;9047;53.486;10.218;2022-07-24T00:36:06;7.05;;;4.72;;
17844;SDS011;9047;53.486;10.218;2022-07-24T00:38:38;8.93;;;5.60;;
17844;SDS011;9047;53.486;10.218;2022-07-24T00:41:05;9.32;;;6.10;;
17844;SDS011;9047;53.486;10.218;2022-07-24T00:43:40;8.93;;;5.38;;
17844;SDS011;9047;53.486;10.218;2022-07-24T00:46:24;8.75;;;6.10;;
17844;SDS011;9047;53.486;10.218;2022-07-24T00:48:55;10.10;;;5.82;;
17844;SDS011;9047;53.486;10.218;2022-07-24T00:51:22;8.52;;;5.88;;
17844;SDS011;9047;53.486;10.218;2022-07-24T00:53:54;6.53;;;5.28;;
17844;SDS011;9047;53.486;10.218;2022-07-24T00:56:22;7.90;;;5.47;;
17844;SDS011;9047;53.486;10.218;2022-07-24T00:58:51;8.98;;;5.78;;
17844;SDS011;9047;53.486;10.218;2022-07-24T01:01:20;8.27;;;5.63;;
17844;SDS011;9047;53.486;10.218;2022-07-24T01:03:47;7.88;;;5.38;;
17844;SDS011;9047;53.486;10.218;2022-07-24T01:06:16;8.32;;;5.72;;
17844;SDS011;9047;53.486;10.218;2022-07-24T01:08:46;8.32;;;5.78;;
17844;SDS011;9047;53.486;10.218;2022-07-24T01:11:13;8.13;;;5.53;;
17844;SDS011;9047;53.486;10.218;2022-07-24T01:13:55;11.00;;;6.55;;
17844;SDS011;9047;53.486;10.218;2022-07-24T01:16:23;8.55;;;5.90;;
17844;SDS011;9047;53.486;10.218;2022-07-24T01:18:50;11.38;;;6.80;;
17844;SDS011;9047;53.486;10.218;2022-07-24T01:21:19;12.60;;;6.22;;
17844;SDS011;9047;53.486;10.218;2022-07-24T01:23:45;9.10;;;6.28;;
17844;SDS011;9047;53.486;10.218;2022-07-24T01:26:14;13.02;;;6.38;;
17844;SDS011;9047;53.486;10.218;2022-07-24T01:28:44;9.15;;;6.05;;
17844;SDS011;9047;53.486;10.218;2022-07-24T01:31:11;12.15;;;6.30;;
17844;SDS011;9047;53.486;10.218;2022-07-24T01:33:39;12.90;;;7.10;;
17844;SDS011;9047;53.486;10.218;2022-07-24T01:36:06;11.27;;;6.90;;
17844;SDS011;9047;53.486;10.218;2022-07-24T01:38:35;12.63;;;7.25;;
17844;SDS011;9047;53.486;10.218;2022-07-24T01:41:02;12.00;;;6.93;;
17844;SDS011;9047;53.486;10.218;2022-07-24T01:43:31;10.43;;;7.30;;
17844;SDS011;9047;53.486;10.218;2022-07-24T01:46:00;12.00;;;7.93;;
17844;SDS011;9047;53.486;10.218;2022-07-24T01:48:29;11.93;;;7.25;;
17844;SDS011;9047;53.486;10.218;2022-07-24T01:50:57;13.20;;;7.70;;
17844;SDS011;9047;53.486;10.218;2022-07-24T01:53:23;12.32;;;7.60;;
17844;SDS011;9047;53.486;10.218;2022-07-24T01:55:53;11.93;;;7.72;;
17844;SDS011;9047;53.486;10.218;2022-07-24T01:58:23;12.30;;;7.50;;
17844;SDS011;9047;53.486;10.218;2022-07-24T02:00:54;12.25;;;7.22;;
17844;SDS011;9047;53.486;10.218;2022-07-24T02:03:22;11.20;;;7.15;;
17844;SDS011;9047;53.486;10.218;2022-07-24T02:05:50;13.25;;;7.10;;
17844;SDS011;9047;53.486;10.218;2022-07-24T02:08:20;12.32;;;6.97;;
17844;SDS011;9047;53.486;10.218;2022-07-24T02:10:47;12.45;;;6.85;;
17844;SDS011;9047;53.486;10.218;2022-07-24T02:13:16;11.50;;;6.70;;
17844;SDS011;9047;53.486;10.218;2022-07-24T02:15:43;11.05;;;5.90;;
17844;SDS011;9047;53.486;10.218;2022-07-24T02:18:11;8.07;;;6.38;;
17844;SDS011;9047;53.486;10.218;2022-07-24T02:20:39;10.20;;;6.82;;
17844;SDS011;9047;53.486;10.218;2022-07-24T02:23:08;11.55;;;6.88;;
17844;SDS011;9047;53.486;10.218;2022-07-24T02:25:42;10.30;;;6.65;;
17844;SDS011;9047;53.486;10.218;2022-07-24T02:28:12;9.40;;;6.45;;
17844;SDS011;9047;53.486;10.218;2022-07-24T02:30:41;9.88;;;6.53;;
17844;SDS011;9047;53.486;10.218;2022-07-24T02:33:08;13.10;;;7.00;;
17844;SDS011;9047;53.486;10.218;2022-07-24T02:35:36;8.55;;;6.40;;
17844;SDS011;9047;53.486;10.218;2022-07-24T02:38:03;10.98;;;6.35;;
17844;SDS011;9047;53.486;10.218;2022-07-24T02:40:30;13.00;;;7.05;;
17844;SDS011;9047;53.486;10.218;2022-07-24T02:43:01;12.95;;;7.32;;
17844;SDS011;9047;53.486;10.218;2022-07-24T02:45:29;11.60;;;7.22;;
17844;SDS011;9047;53.486;10.218;2022-07-24T02:48:01;13.48;;;6.88;;
17844;SDS011;9047;53.486;10.218;2022-07-24T02:50:29;12.52;;;7.45;;
17844;SDS011;9047;53.486;10.218;2022-07-24T02:53:00;11.95;;;7.07;;
17844;SDS011;9047;53.486;10.218;2022-07-24T02:55:28;12.70;;;8.05;;
17844;SDS011;9047;53.486;10.218;2022-07-24T02:57:55;14.05;;;7.50;;
17844;SDS011;9047;53.486;10.218;2022-07-24T03:00:22;10.43;;;7.95;;
17844;SDS011;9047;53.486;10.218;2022-07-24T03:02:50;14.57;;;7.32;;
17844;SDS011;9047;53.486;10.218;2022-07-24T03:05:21;12.90;;;8.10;;
17844;SDS011;9047;53.486;10.218;2022-07-24T03:07:49;13.65;;;7.50;;
17844;SDS011;9047;53.486;10.218;2022-07-24T03:10:16;12.80;;;7.32;;
17844;SDS011;9047;53.486;10.218;2022-07-24T03:12:45;12.43;;;7.47;;
17844;SDS011;9047;53.486;10.218;2022-07-24T03:15:13;11.25;;;7.60;;
17844;SDS011;9047;53.486;10.218;2022-07-24T03:17:47;13.68;;;7.28;;
17844;SDS011;9047;53.486;10.218;2022-07-24T03:20:15;11.35;;;7.45;;
17844;SDS011;9047;53.486;10.218;2022-07-24T03:22:44;12.23;;;7.30;;
17844;SDS011;9047;53.486;10.218;2022-07-24T03:25:11;10.98;;;7.03;;
17844;SDS011;9047;53.486;10.218;2022-07-24T03:27:43;10.32;;;7.22;;
17844;SDS011;9047;53.486;10.218;2022-07-24T03:30:13;13.45;;;7.50;;
17844;SDS011;9047;53.486;10.218;2022-07-24T03:32:41;16.15;;;8.10;;
17844;SDS011;9047;53.486;10.218;2022-07-24T03:35:10;18.95;;;9.23;;
17844;SDS011;9047;53.486;10.218;2022-07-24T03:37:39;14.23;;;8.63;;
17844;SDS011;9047;53.486;10.218;2022-07-24T03:40:09;17.02;;;8.77;;
17844;SDS011;9047;53.486;10.218;2022-07-24T03:42:37;13.68;;;8.45;;
17844;SDS011;9047;53.486;10.218;2022-07-24T03:45:05;13.98;;;8.38;;
17844;SDS011;9047;53.486;10.218;2022-07-24T03:47:36;14.43;;;8.48;;
17844;SDS011;9047;53.486;10.218;2022-07-24T03:50:07;15.50;;;9.07;;
17844;SDS011;9047;53.486;10.218;2022-07-24T03:52:34;16.05;;;9.40;;
17844;SDS011;9047;53.486;10.218;2022-07-24T03:55:02;16.70;;;8.98;;
17844;SDS011;9047;53.486;10.218;2022-07-24T03:57:32;14.27;;;8.30;;
17844;SDS011;9047;53.486;10.218;2022-07-24T03:59:59;13.52;;;7.60;;
17844;SDS011;9047;53.486;10.218;2022-07-24T04:02:26;13.25;;;7.85;;
17844;SDS011;9047;53.486;10.218;2022-07-24T04:04:55;14.35;;;7.53;;
17844;SDS011;9047;53.486;10.218;2022-07-24T04:07:23;12.73;;;7.93;;
17844;SDS011;9047;53.486;10.218;2022-07-24T04:09:58;14.00;;;7.90;;
17844;SDS011;9047;53.486;10.218;2022-07-24T04:12:25;12.57;;;7.55;;
17844;SDS011;9047;53.486;10.218;2022-07-24T04:14:55;13.30;;;7.80;;
17844;SDS011;9047;53.486;10.218;2022-07-24T04:17:22;12.05;;;7.70;;
17844;SDS011;9047;53.486;10.218;2022-07-24T04:19:52;11.15;;;7.10;;
17844;SDS011;9047;53.486;10.218;2022-07-24T04:22:20;12.45;;;7.63;;
17844;SDS011;9047;53.486;10.218;2022-07-24T04:24:54;14.02;;;7.68;;
17844;SDS011;9047;53.486;10.218;2022-07-24T04:27:23;11.15;;;7.97;;
17844;SDS011;9047;53.486;10.218;2022-07-24T04:29:50;11.57;;;7.38;;
17844;SDS011;9047;53.486;10.218;2022-07-24T04:32:19;11.07;;;6.82;;
17844;SDS011;9047;53.486;10.218;2022-07-24T04:34:47;10.68;;;7.55;;
17844;SDS011;9047;53.486;10.218;2022-07-24T04:37:17;12.70;;;7.00;;
17844;SDS011;9047;53.486;10.218;2022-07-24T04:39:45;11.48;;;7.10;;
17844;SDS011;9047;53.486;10.218;2022-07-24T04:42:12;13.48;;;7.38;;
17844;SDS011;9047;53.486;10.218;2022-07-24T04:44:46;12.43;;;6.95;;
17844;SDS011;9047;53.486;10.218;2022-07-24T04:47:13;10.50;;;6.45;;
17844;SDS011;9047;53.486;10.218;2022-07-24T04:49:44;11.05;;;6.55;;
17844;SDS011;9047;53.486;10.218;2022-07-24T04:52:12;10.68;;;6.40;;
17844;SDS011;9047;53.486;10.218;2022-07-24T04:54:40;10.48;;;6.25;;
17844;SDS011;9047;53.486;10.218;2022-07-24T04:57:07;11.00;;;6.55;;
17844;SDS011;9047;53.486;10.218;2022-07-24T04:59:39;10.65;;;6.28;;
17844;SDS011;9047;53.486;10.218;2022-07-24T05:02:11;10.85;;;6.22;;
17844;SDS011;9047;53.486;10.218;2022-07-24T05:04:39;10.05;;;5.90;;
17844;SDS011;9047;53.486;10.218;2022-07-24T05:07:13;10.27;;;6.10;;
17844;SDS011;9047;53.486;10.218;2022-07-24T05:09:40;9.65;;;6.00;;
17844;SDS011;9047;53.486;10.218;2022-07-24T05:12:09;9.52;;;6.28;;
17844;SDS011;9047;53.486;10.218;2022-07-24T05:14:36;9.75;;;5.75;;
17844;SDS011;9047;53.486;10.218;2022-07-24T05:17:03;11.50;;;6.38;;
17844;SDS011;9047;53.486;10.218;2022-07-24T05:19:30;8.77;;;6.07;;
17844;SDS011;9047;53.486;10.218;2022-07-24T05:21:56;11.80;;;5.97;;
17844;SDS011;9047;53.486;10.218;2022-07-24T05:24:24;8.27;;;6.10;;
17844;SDS011;9047;53.486;10.218;2022-07-24T05:26:52;10.93;;;5.60;;
17844;SDS011;9047;53.486;10.218;2022-07-24T05:29:19;10.40;;;6.40;;
17844;SDS011;9047;53.486;10.218;2022-07-24T05:31:46;9.10;;;6.13;;
17844;SDS011;9047;53.486;10.218;2022-07-24T05:34:14;9.50;;;5.93;;
17844;SDS011;9047;53.486;10.218;2022-07-24T05:36:43;10.38;;;6.32;;
17844;SDS011;9047;53.486;10.218;2022-07-24T05:39:10;9.52;;;6.40;;
17844;SDS011;9047;53.486;10.218;2022-07-24T05:41:45;9.93;;;5.95;;
17844;SDS011;9047;53.486;10.218;2022-07-24T05:44:12;8.63;;;5.80;;
17844;SDS011;9047;53.486;10.218;2022-07-24T05:46:54;10.05;;;5.80;;
17844;SDS011;9047;53.486;10.218;2022-07-24T05:49:21;9.05;;;6.22;;
17844;SDS011;9047;53.486;10.218;2022-07-24T05:51:51;8.90;;;6.22;;
17844;SDS011;9047;53.486;10.218;2022-07-24T05:54:21;8.70;;;5.88;;
17844;SDS011;9047;53.486;10.218;2022-07-24T05:56:52;9.90;;;5.78;;
17844;SDS011;9047;53.486;10.218;2022-07-24T05:59:19;9.00;;;5.80;;
17844;SDS011;9047;53.486;10.218;2022-07-24T06:01:46;10.80;;;5.40;;
17844;SDS011;9047;53.486;10.218;2022-07-24T06:04:13;6.68;;;4.80;;
17844;SDS011;9047;53.486;10.218;2022-07-24T06:06:39;7.85;;;5.00;;
17844;SDS011;9047;53.486;10.218;2022-07-24T06:09:06;6.55;;;4.82;;
17844;SDS011;9047;53.486;10.218;2022-07-24T06:11:33;6.20;;;4.47;;
17844;SDS011;9047;53.486;10.218;2022-07-24T06:14:01;5.60;;;4.47;;
17844;SDS011;9047;53.486;10.218;2022-07-24T06:16:28;6.50;;;3.95;;
17844;SDS011;9047;53.486;10.218;2022-07-24T06:18:55;5.65;;;3.92;;
17844;SDS011;9047;53.486;10.218;2022-07-24T06:21:21;5.20;;;3.75;;
17844;SDS011;9047;53.486;10.218;2022-07-24T06:23:48;5.43;;;3.47;;
17844;SDS011;9047;53.486;10.218;2022-07-24T06:26:17;5.10;;;3.20;;
17844;SDS011;9047;53.486;10.218;2022-07-24T06:28:45;4.18;;;2.80;;
17844;SDS011;9047;53.486;10.218;2022-07-24T06:31:21;5.50;;;2.80;;
17844;SDS011;9047;53.486;10.218;2022-07-24T06:33:48;4.40;;;2.45;;
17844;SDS011;9047;53.486;10.218;2022-07-24T06:36:18;3.30;;;2.10;;
17844;SDS011;9047;53.486;10.218;2022-07-24T06:38:57;5.47;;;2.08;;
17844;SDS011;9047;53.486;10.218;2022-07-24T06:41:23;4.28;;;1.80;;
17844;SDS011;9047;53.486;10.218;2022-07-24T06:43:51;4.28;;;1.75;;
17844;SDS011;9047;53.486;10.218;2022-07-24T06:46:20;3.28;;;2.03;;
17844;SDS011;9047;53.486;10.218;2022-07-24T06:48:47;4.20;;;1.70;;
17844;SDS011;9047;53.486;10.218;2022-07-24T06:51:16;6.03;;;2.33;;
17844;SDS011;9047;53.486;10.218;2022-07-24T06:53:43;4.65;;;1.30;;
17844;SDS011;9047;53.486;10.218;2022-07-24T06:56:12;3.13;;;1.80;;
17844;SDS011;9047;53.486;10.218;2022-07-24T06:58:41;3.17;;;1.50;;
17844;SDS011;9047;53.486;10.218;2022-07-24T07:01:10;2.30;;;1.40;;
17844;SDS011;9047;53.486;10.218;2022-07-24T07:03:39;2.85;;;1.40;;
17844;SDS011;9047;53.486;10.218;2022-07-24T07:06:07;1.33;;;1.20;;
17844;SDS011;9047;53.486;10.218;2022-07-24T07:08:34;2.38;;;1.30;;
17844;SDS011;9047;53.486;10.218;2022-07-24T07:11:02;3.10;;;1.50;;
17844;SDS011;9047;53.486;10.218;2022-07-24T07:13:29;3.92;;;1.42;;
17844;SDS011;9047;53.486;10.218;2022-07-24T07:15:56;2.03;;;1.42;;
17844;SDS011;9047;53.486;10.218;2022-07-24T07:18:23;2.15;;;1.10;;
17844;SDS011;9047;53.486;10.218;2022-07-24T07:20:55;3.13;;;1.33;;
17844;SDS011;9047;53.486;10.218;2022-07-24T07:23:25;4.40;;;1.70;;
17844;SDS011;9047;53.486;10.218;2022-07-24T07:25:52;3.20;;;1.40;;
17844;SDS011;9047;53.486;10.218;2022-07-24T07:28:19;1.70;;;1.20;;
17844;SDS011;9047;53.486;10.218;2022-07-24T07:30:46;2.88;;;1.30;;
17844;SDS011;9047;53.486;10.218;2022-07-24T07:33:13;2.53;;;1.10;;
17844;SDS011;9047;53.486;10.218;2022-07-24T07:35:40;3.78;;;1.40;;
17844;SDS011;9047;53.486;10.218;2022-07-24T07:38:13;3.22;;;1.23;;
17844;SDS011;9047;53.486;10.218;2022-07-24T07:40:41;1.83;;;1.10;;
17844;SDS011;9047;53.486;10.218;2022-07-24T07:43:09;1.90;;;1.20;;
17844;SDS011;9047;53.486;10.218;2022-07-24T07:45:36;2.65;;;1.15;;
17844;SDS011;9047;53.486;10.218;2022-07-24T07:48:06;44.83;;;8.80;;
17844;SDS011;9047;53.486;10.218;2022-07-24T07:50:41;2.03;;;1.20;;
17844;SDS011;9047;53.486;10.218;2022-07-24T07:53:23;3.83;;;1.30;;
17844;SDS011;9047;53.486;10.218;2022-07-24T07:56:20;2.75;;;1.20;;
17844;SDS011;9047;53.486;10.218;2022-07-24T07:58:59;2.38;;;1.10;;
17844;SDS011;9047;53.486;10.218;2022-07-24T08:01:32;2.85;;;1.55;;
17844;SDS011;9047;53.486;10.218;2022-07-24T08:04:03;2.05;;;1.20;;
17844;SDS011;9047;53.486;10.218;2022-07-24T08:06:35;4.15;;;1.60;;
17844;SDS011;9047;53.486;10.218;2022-07-24T08:09:12;3.15;;;1.30;;
17844;SDS011;9047;53.486;10.218;2022-07-24T08:11:39;2.70;;;1.13;;
17844;SDS011;9047;53.486;10.218;2022-07-24T08:14:07;2.03;;;1.10;;
17844;SDS011;9047;53.486;10.218;2022-07-24T08:16:35;1.95;;;1.17;;
17844;SDS011;9047;53.486;10.218;2022-07-24T08:19:04;8.05;;;2.10;;
17844;SDS011;9047;53.486;10.218;2022-07-24T08:21:31;2.47;;;1.27;;
17844;SDS011;9047;53.486;10.218;2022-07-24T08:23:58;2.88;;;1.17;;
17844;SDS011;9047;53.486;10.218;2022-07-24T08:26:26;3.40;;;1.40;;
17844;SDS011;9047;53.486;10.218;2022-07-24T08:28:55;4.47;;;1.42;;
17844;SDS011;9047;53.486;10.218;2022-07-24T08:31:23;1.60;;;1.23;;
17844;SDS011;9047;53.486;10.218;2022-07-24T08:33:50;2.17;;;1.40;;
17844;SDS011;9047;53.486;10.218;2022-07-24T08:36:18;4.68;;;1.60;;
17844;SDS011;9047;53.486;10.218;2022-07-24T08:38:48;2.97;;;1.65;;
17844;SDS011;9047;53.486;10.218;2022-07-24T08:41:16;1.83;;;1.30;;
17844;SDS011;9047;53.486;10.218;2022-07-24T08:43:45;2.58;;;1.40;;
17844;SDS011;9047;53.486;10.218;2022-07-24T08:46:12;5.63;;;1.60;;
17844;SDS011;9047;53.486;10.218;2022-07-24T08:48:42;2.88;;;1.35;;
17844;SDS011;9047;53.486;10.218;2022-07-24T08:51:10;3.20;;;1.60;;
17844;SDS011;9047;53.486;10.218;2022-07-24T08:53:39;3.47;;;1.63;;
17844;SDS011;9047;53.486;10.218;2022-07-24T08:56:06;2.97;;;1.60;;
17844;SDS011;9047;53.486;10.218;2022-07-24T08:58:35;2.28;;;1.55;;
17844;SDS011;9047;53.486;10.218;2022-07-24T09:01:04;2.50;;;1.45;;
17844;SDS011;9047;53.486;10.218;2022-07-24T09:03:39;1.75;;;1.60;;
17844;SDS011;9047;53.486;10.218;2022-07-24T09:06:07;3.05;;;1.60;;
17844;SDS011;9047;53.486;10.218;2022-07-24T09:08:35;2.33;;;1.40;;
17844;SDS011;9047;53.486;10.218;2022-07-24T09:11:02;1.70;;;1.60;;
17844;SDS011;9047;53.486;10.218;2022-07-24T09:13:30;2.70;;;1.63;;
17844;SDS011;9047;53.486;10.218;2022-07-24T09:16:18;2.58;;;1.73;;
17844;SDS011;9047;53.486;10.218;2022-07-24T09:18:48;3.50;;;1.85;;
17844;SDS011;9047;53.486;10.218;2022-07-24T09:21:17;2.08;;;1.60;;
17844;SDS011;9047;53.486;10.218;2022-07-24T09:23:46;2.42;;;1.70;;
17844;SDS011;9047;53.486;10.218;2022-07-24T09:26:13;3.40;;;1.90;;
17844;SDS011;9047;53.486;10.218;2022-07-24T09:28:52;3.33;;;1.80;;
17844;SDS011;9047;53.486;10.218;2022-07-24T09:31:22;2.60;;;1.63;;
17844;SDS011;9047;53.486;10.218;2022-07-24T09:33:49;3.97;;;1.70;;
17844;SDS011;9047;53.486;10.218;2022-07-24T09:36:17;2.35;;;1.85;;
17844;SDS011;9047;53.486;10.218;2022-07-24T09:38:47;2.00;;;1.80;;
17844;SDS011;9047;53.486;10.218;2022-07-24T09:41:20;3.15;;;2.10;;
17844;SDS011;9047;53.486;10.218;2022-07-24T09:43:55;3.35;;;1.90;;
17844;SDS011;9047;53.486;10.218;2022-07-24T09:46:26;2.60;;;1.85;;
17844;SDS011;9047;53.486;10.218;2022-07-24T09:48:55;3.10;;;1.98;;
17844;SDS011;9047;53.486;10.218;2022-07-24T09:51:23;3.47;;;2.00;;
17844;SDS011;9047;53.486;10.218;2022-07-24T09:53:55;2.55;;;1.80;;
17844;SDS011;9047;53.486;10.218;2022-07-24T09:56:26;2.85;;;2.08;;
17844;SDS011;9047;53.486;10.218;2022-07-24T09:58:56;2.65;;;2.17;;
17844;SDS011;9047;53.486;10.218;2022-07-24T10:01:37;2.63;;;2.08;;
17844;SDS011;9047;53.486;10.218;2022-07-24T10:04:13;1.95;;;1.85;;
17844;SDS011;9047;53.486;10.218;2022-07-24T10:06:45;2.63;;;2.10;;
17844;SDS011;9047;53.486;10.218;2022-07-24T10:09:16;2.83;;;2.00;;
17844;SDS011;9047;53.486;10.218;2022-07-24T10:11:50;2.72;;;2.00;;
17844;SDS011;9047;53.486;10.218;2022-07-24T10:14:21;2.85;;;2.17;;
17844;SDS011;9047;53.486;10.218;2022-07-24T10:16:54;2.90;;;2.17;;
17844;SDS011;9047;53.486;10.218;2022-07-24T10:19:32;3.47;;;2.10;;
17844;SDS011;9047;53.486;10.218;2022-07-24T10:22:09;3.13;;;2.28;;
17844;SDS011;9047;53.486;10.218;2022-07-24T10:24:58;2.50;;;2.30;;
17844;SDS011;9047;53.486;10.218;2022-07-24T10:27:32;4.20;;;2.55;;
17844;SDS011;9047;53.486;10.218;2022-07-24T10:30:07;4.30;;;2.60;;
17844;SDS011;9047;53.486;10.218;2022-07-24T10:32:38;3.25;;;2.53;;
17844;SDS011;9047;53.486;10.218;2022-07-24T10:35:11;4.57;;;2.90;;
17844;SDS011;9047;53.486;10.218;2022-07-24T10:37:51;3.78;;;2.30;;
17844;SDS011;9047;53.486;10.218;2022-07-24T10:40:26;5.03;;;2.80;;
17844;SDS011;9047;53.486;10.218;2022-07-24T10:43:12;3.15;;;2.67;;
17844;SDS011;9047;53.486;10.218;2022-07-24T10:45:45;3.63;;;2.58;;
17844;SDS011;9047;53.486;10.218;2022-07-24T10:48:31;3.22;;;2.47;;
17844;SDS011;9047;53.486;10.218;2022-07-24T10:51:08;4.53;;;3.40;;
17844;SDS011;9047;53.486;10.218;2022-07-24T10:53:47;6.18;;;2.90;;
17844;SDS011;9047;53.486;10.218;2022-07-24T10:56:18;2.75;;;2.50;;
17844;SDS011;9047;53.486;10.218;2022-07-24T10:58:52;3.22;;;2.63;;
17844;SDS011;9047;53.486;10.218;2022-07-24T11:01:27;4.22;;;2.92;;
17844;SDS011;9047;53.486;10.218;2022-07-24T11:06:59;4.35;;;3.40;;
17844;SDS011;9047;53.486;10.218;2022-07-24T11:09:53;6.50;;;3.22;;
17844;SDS011;9047;53.486;10.218;2022-07-24T11:12:28;4.80;;;3.03;;
17844;SDS011;9047;53.486;10.218;2022-07-24T11:14:59;3.33;;;2.95;;
17844;SDS011;9047;53.486;10.218;2022-07-24T11:17:41;6.15;;;3.50;;
17844;SDS011;9047;53.486;10.218;2022-07-24T11:20:11;4.50;;;3.03;;
17844;SDS011;9047;53.486;10.218;2022-07-24T11:22:40;4.00;;;3.30;;
17844;SDS011;9047;53.486;10.218;2022-07-24T11:25:16;5.75;;;3.47;;
17844;SDS011;9047;53.486;10.218;2022-07-24T11:28:12;3.67;;;3.20;;
17844;SDS011;9047;53.486;10.218;2022-07-24T11:30:44;5.35;;;3.50;;
17844;SDS011;9047;53.486;10.218;2022-07-24T11:33:17;5.22;;;3.42;;
17844;SDS011;9047;53.486;10.218;2022-07-24T11:35:49;5.97;;;3.97;;
17844;SDS011;9047;53.486;10.218;2022-07-24T11:38:18;6.00;;;4.55;;
17844;SDS011;9047;53.486;10.218;2022-07-24T11:41:05;4.65;;;3.80;;
17844;SDS011;9047;53.486;10.218;2022-07-24T11:43:33;5.30;;;3.85;;
17844;SDS011;9047;53.486;10.218;2022-07-24T11:46:02;5.50;;;4.07;;
17844;SDS011;9047;53.486;10.218;2022-07-24T11:48:30;6.07;;;4.22;;
17844;SDS011;9047;53.486;10.218;2022-07-24T11:51:05;5.00;;;4.50;;
17844;SDS011;9047;53.486;10.218;2022-07-24T11:53:34;5.88;;;4.60;;
17844;SDS011;9047;53.486;10.218;2022-07-24T11:56:02;5.20;;;4.20;;
17844;SDS011;9047;53.486;10.218;2022-07-24T11:58:36;5.78;;;4.28;;
17844;SDS011;9047;53.486;10.218;2022-07-24T12:01:17;4.97;;;4.13;;
17844;SDS011;9047;53.486;10.218;2022-07-24T12:03:48;4.80;;;4.20;;
17844;SDS011;9047;53.486;10.218;2022-07-24T12:06:17;5.95;;;4.25;;
17844;SDS011;9047;53.486;10.218;2022-07-24T12:08:46;5.55;;;4.30;;
17844;SDS011;9047;53.486;10.218;2022-07-24T12:11:19;7.07;;;4.10;;
17844;SDS011;9047;53.486;10.218;2022-07-24T12:13:48;4.88;;;3.88;;
17844;SDS011;9047;53.486;10.218;2022-07-24T12:16:22;4.63;;;3.80;;
17844;SDS011;9047;53.486;10.218;2022-07-24T12:18:53;4.40;;;4.00;;
17844;SDS011;9047;53.486;10.218;2022-07-24T12:21:21;4.28;;;3.88;;
17844;SDS011;9047;53.486;10.218;2022-07-24T12:23:48;4.97;;;3.78;;
17844;SDS011;9047;53.486;10.218;2022-07-24T12:26:16;5.07;;;4.32;;
17844;SDS011;9047;53.486;10.218;2022-07-24T12:28:46;6.28;;;4.20;;
17844;SDS011;9047;53.486;10.218;2022-07-24T12:31:13;7.25;;;4.10;;
17844;SDS011;9047;53.486;10.218;2022-07-24T12:33:41;6.30;;;4.20;;
17844;SDS011;9047;53.486;10.218;2022-07-24T12:36:22;5.90;;;3.90;;
17844;SDS011;9047;53.486;10.218;2022-07-24T12:38:53;5.15;;;4.00;;
17844;SDS011;9047;53.486;10.218;2022-07-24T12:41:22;5.05;;;4.35;;
17844;SDS011;9047;53.486;10.218;2022-07-24T12:43:51;8.00;;;4.70;;
17844;SDS011;9047;53.486;10.218;2022-07-24T12:46:29;5.63;;;4.60;;
17844;SDS011;9047;53.486;10.218;2022-07-24T12:49:00;4.68;;;3.90;;
17844;SDS011;9047;53.486;10.218;2022-07-24T12:51:45;4.55;;;3.92;;
17844;SDS011;9047;53.486;10.218;2022-07-24T12:54:14;4.78;;;3.85;;
17844;SDS011;9047;53.486;10.218;2022-07-24T12:56:43;4.25;;;3.70;;
17844;SDS011;9047;53.486;10.218;2022-07-24T12:59:20;8.98;;;3.72;;
17844;SDS011;9047;53.486;10.218;2022-07-24T13:01:49;4.20;;;3.78;;
17844;SDS011;9047;53.486;10.218;2022-07-24T13:04:18;5.72;;;4.05;;
17844;SDS011;9047;53.486;10.218;2022-07-24T13:06:49;4.60;;;3.63;;
17844;SDS011;9047;53.486;10.218;2022-07-24T13:09:20;4.78;;;4.30;;
17844;SDS011;9047;53.486;10.218;2022-07-24T13:11:51;4.60;;;4.05;;
17844;SDS011;9047;53.486;10.218;2022-07-24T13:14:20;4.38;;;3.65;;
17844;SDS011;9047;53.486;10.218;2022-07-24T13:16:49;4.80;;;3.70;;
17844;SDS011;9047;53.486;10.218;2022-07-24T13:19:18;5.30;;;3.92;;
17844;SDS011;9047;53.486;10.218;2022-07-24T13:21:52;6.93;;;3.67;;
17844;SDS011;9047;53.486;10.218;2022-07-24T13:24:20;6.10;;;4.00;;
17844;SDS011;9047;53.486;10.218;2022-07-24T13:26:47;5.07;;;3.78;;
17844;SDS011;9047;53.486;10.218;2022-07-24T13:29:14;5.15;;;3.38;;
17844;SDS011;9047;53.486;10.218;2022-07-24T13:31:43;4.50;;;3.50;;
17844;SDS011;9047;53.486;10.218;2022-07-24T13:34:11;4.40;;;3.95;;
17844;SDS011;9047;53.486;10.218;2022-07-24T13:36:41;5.93;;;3.65;;
17844;SDS011;9047;53.486;10.218;2022-07-24T13:39:10;3.95;;;3.55;;
17844;SDS011;9047;53.486;10.218;2022-07-24T13:41:37;4.63;;;3.53;;
17844;SDS011;9047;53.486;10.218;2022-07-24T13:44:05;4.72;;;3.60;;
17844;SDS011;9047;53.486;10.218;2022-07-24T13:46:34;4.38;;;3.42;;
17844;SDS011;9047;53.486;10.218;2022-07-24T13:49:02;3.28;;;2.97;;
17844;SDS011;9047;53.486;10.218;2022-07-24T13:51:37;4.90;;;3.40;;
17844;SDS011;9047;53.486;10.218;2022-07-24T13:54:07;3.88;;;3.35;;
17844;SDS011;9047;53.486;10.218;2022-07-24T13:56:38;4.38;;;3.45;;
17844;SDS011;9047;53.486;10.218;2022-07-24T13:59:06;4.53;;;3.58;;
17844;SDS011;9047;53.486;10.218;2022-07-24T14:01:33;3.30;;;3.00;;
17844;SDS011;9047;53.486;10.218;2022-07-24T14:04:00;4.47;;;3.58;;
17844;SDS011;9047;53.486;10.218;2022-07-24T14:06:29;3.97;;;3.58;;
17844;SDS011;9047;53.486;10.218;2022-07-24T14:08:57;5.50;;;3.60;;
17844;SDS011;9047;53.486;10.218;2022-07-24T14:11:24;7.60;;;3.63;;
17844;SDS011;9047;53.486;10.218;2022-07-24T14:13:53;3.95;;;3.50;;
17844;SDS011;9047;53.486;10.218;2022-07-24T14:16:20;4.20;;;3.80;;
17844;SDS011;9047;53.486;10.218;2022-07-24T14:18:48;5.05;;;3.70;;
17844;SDS011;9047;53.486;10.218;2022-07-24T14:21:16;5.07;;;3.85;;
17844;SDS011;9047;53.486;10.218;2022-07-24T14:23:47;4.50;;;3.65;;
17844;SDS011;9047;53.486;10.218;2022-07-24T14:26:15;4.10;;;3.40;;
17844;SDS011;9047;53.486;10.218;2022-07-24T14:28:42;4.40;;;3.30;;
17844;SDS011;9047;53.486;10.218;2022-07-24T14:31:11;5.47;;;3.50;;
17844;SDS011;9047;53.486;10.218;2022-07-24T14:33:38;5.88;;;3.80;;
17844;SDS011;9047;53.486;10.218;2022-07-24T14:36:06;4.55;;;3.53;;
17844;SDS011;9047;53.486;10.218;2022-07-24T14:38:39;4.68;;;3.63;;
17844;SDS011;9047;53.486;10.218;2022-07-24T14:41:06;4.05;;;3.50;;
17844;SDS011;9047;53.486;10.218;2022-07-24T14:43:33;3.75;;;3.28;;
17844;SDS011;9047;53.486;10.218;2022-07-24T14:46:00;4.28;;;3.33;;
17844;SDS011;9047;53.486;10.218;2022-07-24T14:48:29;3.58;;;3.15;;
17844;SDS011;9047;53.486;10.218;2022-07-24T14:50:56;4.93;;;3.70;;
17844;SDS011;9047;53.486;10.218;2022-07-24T14:53:23;4.35;;;3.85;;
17844;SDS011;9047;53.486;10.218;2022-07-24T14:55:53;5.78;;;4.15;;
17844;SDS011;9047;53.486;10.218;2022-07-24T14:58:22;7.30;;;4.85;;
17844;SDS011;9047;53.486;10.218;2022-07-24T15:01:04;4.18;;;3.78;;
17844;SDS011;9047;53.486;10.218;2022-07-24T15:03:38;4.90;;;3.45;;